sensor_id;sensor_type;location;lat;lon;timestamp;P1;durP1;ratioP1;P2;durP2;ratioP2
21677;SDS011;11000;50.360;7.582;2022-09-03T00:00:09;6.57;;;1.50;;
21677;SDS011;11000;50.360;7.582;2022-09-03T00:05:24;2.40;;;1.30;;
21677;SDS011;11000;50.360;7.582;2022-09-03T00:10:50;1.27;;;1.00;;
21677;SDS011;11000;50.360;7.582;2022-09-03T00:13:37;1.93;;;1.00;;
21677;SDS011;11000;50.360;7.582;2022-09-03T00:16:04;1.30;;;1.10;;
21677;SDS011;11000;50.360;7.582;2022-09-03T00:18:30;1.50;;;0.90;;
21677;SDS011;11000;50.360;7.582;2022-09-03T00:20:56;3.70;;;1.30;;
21677;SDS011;11000;50.360;7.582;2022-09-03T00:23:27;2.20;;;1.10;;
21677;SDS011;11000;50.360;7.582;2022-09-03T00:25:54;2.97;;;1.20;;
21677;SDS011;11000;50.360;7.582;2022-09-03T00:28:33;2.70;;;1.10;;
21677;SDS011;11000;50.360;7.582;2022-09-03T00:31:05;0.93;;;0.90;;
21677;SDS011;11000;50.360;7.582;2022-09-03T00:33:37;2.50;;;1.03;;
21677;SDS011;11000;50.360;7.582;2022-09-03T00:38:28;1.10;;;0.77;;
21677;SDS011;11000;50.360;7.582;2022-09-03T00:43:30;2.03;;;1.23;;
21677;SDS011;11000;50.360;7.582;2022-09-03T00:51:36;0.70;;;0.70;;
21677;SDS011;11000;50.360;7.582;2022-09-03T00:54:54;1.30;;;0.97;;
21677;SDS011;11000;50.360;7.582;2022-09-03T00:59:43;3.00;;;1.17;;
21677;SDS011;11000;50.360;7.582;2022-09-03T01:05:00;1.17;;;1.00;;
21677;SDS011;11000;50.360;7.582;2022-09-03T01:07:48;1.47;;;1.10;;
21677;SDS011;11000;50.360;7.582;2022-09-03T01:10:35;2.70;;;1.00;;
21677;SDS011;11000;50.360;7.582;2022-09-03T01:13:06;1.70;;;0.80;;
21677;SDS011;11000;50.360;7.582;2022-09-03T01:23:36;2.27;;;0.90;;
21677;SDS011;11000;50.360;7.582;2022-09-03T01:31:32;2.57;;;0.97;;
21677;SDS011;11000;50.360;7.582;2022-09-03T01:34:19;1.43;;;0.90;;
21677;SDS011;11000;50.360;7.582;2022-09-03T01:39:26;1.10;;;0.87;;
21677;SDS011;11000;50.360;7.582;2022-09-03T01:42:04;1.33;;;0.67;;
21677;SDS011;11000;50.360;7.582;2022-09-03T01:49:53;1.97;;;1.00;;
21677;SDS011;11000;50.360;7.582;2022-09-03T01:55:24;1.13;;;1.00;;
21677;SDS011;11000;50.360;7.582;2022-09-03T01:57:55;2.33;;;0.70;;
21677;SDS011;11000;50.360;7.582;2022-09-03T02:00:22;1.37;;;0.77;;
21677;SDS011;11000;50.360;7.582;2022-09-03T02:02:46;1.50;;;1.00;;
21677;SDS011;11000;50.360;7.582;2022-09-03T02:05:14;1.53;;;1.10;;
21677;SDS011;11000;50.360;7.582;2022-09-03T02:07:44;0.60;;;0.60;;
21677;SDS011;11000;50.360;7.582;2022-09-03T02:10:13;2.23;;;0.93;;
21677;SDS011;11000;50.360;7.582;2022-09-03T02:12:36;1.57;;;1.00;;
21677;SDS011;11000;50.360;7.582;2022-09-03T02:15:02;3.60;;;0.90;;
21677;SDS011;11000;50.360;7.582;2022-09-03T02:17:26;2.83;;;0.60;;
21677;SDS011;11000;50.360;7.582;2022-09-03T02:19:46;1.00;;;0.70;;
21677;SDS011;11000;50.360;7.582;2022-09-03T02:22:07;3.03;;;0.87;;
21677;SDS011;11000;50.360;7.582;2022-09-03T02:24:27;3.57;;;1.10;;
21677;SDS011;11000;50.360;7.582;2022-09-03T02:26:48;1.30;;;1.10;;
21677;SDS011;11000;50.360;7.582;2022-09-03T02:29:08;1.10;;;0.97;;
21677;SDS011;11000;50.360;7.582;2022-09-03T02:31:29;1.47;;;0.90;;
21677;SDS011;11000;50.360;7.582;2022-09-03T02:33:50;3.63;;;1.23;;
21677;SDS011;11000;50.360;7.582;2022-09-03T02:36:12;1.17;;;0.90;;
21677;SDS011;11000;50.360;7.582;2022-09-03T02:38:35;2.00;;;1.00;;
21677;SDS011;11000;50.360;7.582;2022-09-03T02:40:56;2.90;;;0.80;;
21677;SDS011;11000;50.360;7.582;2022-09-03T02:43:18;1.80;;;0.80;;
21677;SDS011;11000;50.360;7.582;2022-09-03T02:45:49;1.93;;;0.87;;
21677;SDS011;11000;50.360;7.582;2022-09-03T02:48:15;1.30;;;0.73;;
21677;SDS011;11000;50.360;7.582;2022-09-03T02:50:41;1.17;;;1.03;;
21677;SDS011;11000;50.360;7.582;2022-09-03T02:53:02;1.10;;;0.93;;
21677;SDS011;11000;50.360;7.582;2022-09-03T02:55:23;1.57;;;0.80;;
21677;SDS011;11000;50.360;7.582;2022-09-03T02:57:44;2.03;;;0.83;;
21677;SDS011;11000;50.360;7.582;2022-09-03T03:00:05;1.10;;;1.00;;
21677;SDS011;11000;50.360;7.582;2022-09-03T03:02:26;1.10;;;1.00;;
21677;SDS011;11000;50.360;7.582;2022-09-03T03:04:47;1.67;;;0.90;;
21677;SDS011;11000;50.360;7.582;2022-09-03T03:07:08;2.23;;;0.90;;
21677;SDS011;11000;50.360;7.582;2022-09-03T03:09:28;1.73;;;0.83;;
21677;SDS011;11000;50.360;7.582;2022-09-03T03:11:49;2.57;;;0.80;;
21677;SDS011;11000;50.360;7.582;2022-09-03T03:14:10;0.93;;;0.93;;
21677;SDS011;11000;50.360;7.582;2022-09-03T03:16:30;2.87;;;0.87;;
21677;SDS011;11000;50.360;7.582;2022-09-03T03:18:51;2.47;;;0.83;;
21677;SDS011;11000;50.360;7.582;2022-09-03T03:21:15;1.23;;;0.93;;
21677;SDS011;11000;50.360;7.582;2022-09-03T03:23:37;1.43;;;0.77;;
21677;SDS011;11000;50.360;7.582;2022-09-03T03:26:01;3.23;;;0.80;;
21677;SDS011;11000;50.360;7.582;2022-09-03T03:28:24;0.87;;;0.73;;
21677;SDS011;11000;50.360;7.582;2022-09-03T03:30:44;0.70;;;0.60;;
21677;SDS011;11000;50.360;7.582;2022-09-03T03:33:10;1.40;;;0.77;;
21677;SDS011;11000;50.360;7.582;2022-09-03T03:35:31;1.07;;;0.97;;
21677;SDS011;11000;50.360;7.582;2022-09-03T03:37:52;1.10;;;0.60;;
21677;SDS011;11000;50.360;7.582;2022-09-03T03:40:12;2.13;;;1.00;;
21677;SDS011;11000;50.360;7.582;2022-09-03T03:42:33;2.00;;;0.90;;
21677;SDS011;11000;50.360;7.582;2022-09-03T03:44:54;1.00;;;0.87;;
21677;SDS011;11000;50.360;7.582;2022-09-03T03:47:15;2.93;;;1.13;;
21677;SDS011;11000;50.360;7.582;2022-09-03T03:49:38;1.10;;;1.00;;
21677;SDS011;11000;50.360;7.582;2022-09-03T03:51:59;2.13;;;1.00;;
21677;SDS011;11000;50.360;7.582;2022-09-03T03:54:22;1.97;;;0.90;;
21677;SDS011;11000;50.360;7.582;2022-09-03T03:56:42;1.30;;;0.70;;
21677;SDS011;11000;50.360;7.582;2022-09-03T03:59:03;1.27;;;0.80;;
21677;SDS011;11000;50.360;7.582;2022-09-03T04:01:24;0.60;;;0.60;;
21677;SDS011;11000;50.360;7.582;2022-09-03T04:03:45;3.07;;;0.90;;
21677;SDS011;11000;50.360;7.582;2022-09-03T04:06:06;5.20;;;0.87;;
21677;SDS011;11000;50.360;7.582;2022-09-03T04:08:28;3.07;;;1.00;;
21677;SDS011;11000;50.360;7.582;2022-09-03T04:10:49;2.43;;;0.90;;
21677;SDS011;11000;50.360;7.582;2022-09-03T04:13:10;1.07;;;0.80;;
21677;SDS011;11000;50.360;7.582;2022-09-03T04:15:30;1.73;;;0.80;;
21677;SDS011;11000;50.360;7.582;2022-09-03T04:17:53;1.63;;;0.93;;
21677;SDS011;11000;50.360;7.582;2022-09-03T04:20:14;5.73;;;0.97;;
21677;SDS011;11000;50.360;7.582;2022-09-03T04:22:34;2.00;;;0.90;;
21677;SDS011;11000;50.360;7.582;2022-09-03T04:24:55;0.60;;;0.60;;
21677;SDS011;11000;50.360;7.582;2022-09-03T04:27:15;0.80;;;0.80;;
21677;SDS011;11000;50.360;7.582;2022-09-03T04:29:36;1.30;;;0.93;;
21677;SDS011;11000;50.360;7.582;2022-09-03T04:31:56;3.60;;;1.10;;
21677;SDS011;11000;50.360;7.582;2022-09-03T04:34:35;1.20;;;1.10;;
21677;SDS011;11000;50.360;7.582;2022-09-03T04:36:56;4.73;;;0.90;;
21677;SDS011;11000;50.360;7.582;2022-09-03T04:39:19;3.90;;;1.10;;
21677;SDS011;11000;50.360;7.582;2022-09-03T04:41:40;1.23;;;1.00;;
21677;SDS011;11000;50.360;7.582;2022-09-03T04:44:00;2.10;;;0.93;;
21677;SDS011;11000;50.360;7.582;2022-09-03T04:46:22;3.00;;;1.10;;
21677;SDS011;11000;50.360;7.582;2022-09-03T04:48:48;2.40;;;1.20;;
21677;SDS011;11000;50.360;7.582;2022-09-03T04:51:11;1.03;;;0.93;;
21677;SDS011;11000;50.360;7.582;2022-09-03T04:53:34;1.83;;;1.20;;
21677;SDS011;11000;50.360;7.582;2022-09-03T04:55:56;1.17;;;0.83;;
21677;SDS011;11000;50.360;7.582;2022-09-03T04:58:16;3.10;;;0.97;;
21677;SDS011;11000;50.360;7.582;2022-09-03T05:00:37;3.83;;;1.20;;
21677;SDS011;11000;50.360;7.582;2022-09-03T05:03:01;0.93;;;0.90;;
21677;SDS011;11000;50.360;7.582;2022-09-03T05:05:23;1.03;;;0.93;;
21677;SDS011;11000;50.360;7.582;2022-09-03T05:07:44;2.40;;;1.00;;
21677;SDS011;11000;50.360;7.582;2022-09-03T05:10:05;1.20;;;1.10;;
21677;SDS011;11000;50.360;7.582;2022-09-03T05:12:27;5.23;;;1.10;;
21677;SDS011;11000;50.360;7.582;2022-09-03T05:14:48;1.10;;;1.00;;
21677;SDS011;11000;50.360;7.582;2022-09-03T05:17:08;1.87;;;1.07;;
21677;SDS011;11000;50.360;7.582;2022-09-03T05:19:29;1.27;;;1.00;;
21677;SDS011;11000;50.360;7.582;2022-09-03T05:21:50;1.17;;;0.90;;
21677;SDS011;11000;50.360;7.582;2022-09-03T05:24:10;0.87;;;0.87;;
21677;SDS011;11000;50.360;7.582;2022-09-03T05:26:32;2.17;;;1.00;;
21677;SDS011;11000;50.360;7.582;2022-09-03T05:28:57;0.80;;;0.80;;
21677;SDS011;11000;50.360;7.582;2022-09-03T05:31:19;1.27;;;1.10;;
21677;SDS011;11000;50.360;7.582;2022-09-03T05:33:44;2.47;;;1.03;;
21677;SDS011;11000;50.360;7.582;2022-09-03T05:36:07;1.70;;;0.87;;
21677;SDS011;11000;50.360;7.582;2022-09-03T05:38:29;1.10;;;1.00;;
21677;SDS011;11000;50.360;7.582;2022-09-03T05:40:50;1.00;;;0.80;;
21677;SDS011;11000;50.360;7.582;2022-09-03T05:43:10;2.37;;;0.90;;
21677;SDS011;11000;50.360;7.582;2022-09-03T05:45:31;1.63;;;0.73;;
21677;SDS011;11000;50.360;7.582;2022-09-03T05:47:52;3.60;;;1.00;;
21677;SDS011;11000;50.360;7.582;2022-09-03T05:50:12;1.23;;;0.90;;
21677;SDS011;11000;50.360;7.582;2022-09-03T05:52:33;2.30;;;1.33;;
21677;SDS011;11000;50.360;7.582;2022-09-03T05:54:54;2.47;;;1.00;;
21677;SDS011;11000;50.360;7.582;2022-09-03T05:57:15;1.93;;;0.90;;
21677;SDS011;11000;50.360;7.582;2022-09-03T05:59:35;1.13;;;0.80;;
21677;SDS011;11000;50.360;7.582;2022-09-03T06:01:56;1.60;;;1.07;;
21677;SDS011;11000;50.360;7.582;2022-09-03T06:04:17;1.90;;;1.10;;
21677;SDS011;11000;50.360;7.582;2022-09-03T06:06:39;1.17;;;0.90;;
21677;SDS011;11000;50.360;7.582;2022-09-03T06:09:11;2.63;;;1.30;;
21677;SDS011;11000;50.360;7.582;2022-09-03T06:11:35;2.63;;;1.10;;
21677;SDS011;11000;50.360;7.582;2022-09-03T06:13:57;1.13;;;1.03;;
21677;SDS011;11000;50.360;7.582;2022-09-03T06:16:23;1.80;;;0.97;;
21677;SDS011;11000;50.360;7.582;2022-09-03T06:18:44;1.13;;;0.90;;
21677;SDS011;11000;50.360;7.582;2022-09-03T06:21:05;1.47;;;1.00;;
21677;SDS011;11000;50.360;7.582;2022-09-03T06:23:27;1.47;;;0.90;;
21677;SDS011;11000;50.360;7.582;2022-09-03T06:25:58;3.43;;;0.90;;
21677;SDS011;11000;50.360;7.582;2022-09-03T06:28:25;1.77;;;0.80;;
21677;SDS011;11000;50.360;7.582;2022-09-03T06:30:46;3.17;;;1.20;;
21677;SDS011;11000;50.360;7.582;2022-09-03T06:33:07;1.97;;;1.23;;
21677;SDS011;11000;50.360;7.582;2022-09-03T06:35:27;2.00;;;1.10;;
21677;SDS011;11000;50.360;7.582;2022-09-03T06:37:48;2.27;;;1.30;;
21677;SDS011;11000;50.360;7.582;2022-09-03T06:40:11;1.33;;;1.20;;
21677;SDS011;11000;50.360;7.582;2022-09-03T06:42:32;4.90;;;1.47;;
21677;SDS011;11000;50.360;7.582;2022-09-03T06:44:53;1.40;;;1.00;;
21677;SDS011;11000;50.360;7.582;2022-09-03T06:47:16;2.50;;;1.40;;
21677;SDS011;11000;50.360;7.582;2022-09-03T06:49:37;2.53;;;1.50;;
21677;SDS011;11000;50.360;7.582;2022-09-03T06:51:57;1.67;;;1.47;;
21677;SDS011;11000;50.360;7.582;2022-09-03T06:54:18;1.93;;;1.60;;
21677;SDS011;11000;50.360;7.582;2022-09-03T06:56:39;3.37;;;1.40;;
21677;SDS011;11000;50.360;7.582;2022-09-03T06:59:03;2.43;;;1.57;;
21677;SDS011;11000;50.360;7.582;2022-09-03T07:01:26;1.83;;;1.50;;
21677;SDS011;11000;50.360;7.582;2022-09-03T07:03:56;2.43;;;2.00;;
21677;SDS011;11000;50.360;7.582;2022-09-03T07:06:20;10.23;;;1.70;;
21677;SDS011;11000;50.360;7.582;2022-09-03T07:08:41;4.10;;;1.73;;
21677;SDS011;11000;50.360;7.582;2022-09-03T07:11:03;3.73;;;1.33;;
21677;SDS011;11000;50.360;7.582;2022-09-03T07:13:28;3.03;;;1.50;;
21677;SDS011;11000;50.360;7.582;2022-09-03T07:15:56;4.47;;;4.00;;
21677;SDS011;11000;50.360;7.582;2022-09-03T07:18:18;1.87;;;1.70;;
21677;SDS011;11000;50.360;7.582;2022-09-03T07:20:38;2.00;;;1.30;;
21677;SDS011;11000;50.360;7.582;2022-09-03T07:22:58;1.70;;;1.23;;
21677;SDS011;11000;50.360;7.582;2022-09-03T07:25:19;3.73;;;1.60;;
21677;SDS011;11000;50.360;7.582;2022-09-03T07:27:41;2.70;;;1.40;;
21677;SDS011;11000;50.360;7.582;2022-09-03T07:30:01;2.47;;;1.77;;
21677;SDS011;11000;50.360;7.582;2022-09-03T07:32:22;2.97;;;1.37;;
21677;SDS011;11000;50.360;7.582;2022-09-03T07:34:43;1.67;;;0.97;;
21677;SDS011;11000;50.360;7.582;2022-09-03T07:37:04;1.40;;;0.90;;
21677;SDS011;11000;50.360;7.582;2022-09-03T07:39:24;1.43;;;0.87;;
21677;SDS011;11000;50.360;7.582;2022-09-03T07:41:45;1.70;;;1.00;;
21677;SDS011;11000;50.360;7.582;2022-09-03T07:44:06;1.07;;;0.97;;
21677;SDS011;11000;50.360;7.582;2022-09-03T07:46:27;1.20;;;1.03;;
21677;SDS011;11000;50.360;7.582;2022-09-03T07:48:51;0.67;;;0.67;;
21677;SDS011;11000;50.360;7.582;2022-09-03T07:51:13;3.73;;;1.10;;
21677;SDS011;11000;50.360;7.582;2022-09-03T07:53:34;2.07;;;0.83;;
21677;SDS011;11000;50.360;7.582;2022-09-03T07:56:02;1.80;;;1.20;;
21677;SDS011;11000;50.360;7.582;2022-09-03T07:58:24;1.00;;;0.90;;
21677;SDS011;11000;50.360;7.582;2022-09-03T08:00:48;0.97;;;0.97;;
21677;SDS011;11000;50.360;7.582;2022-09-03T08:03:08;179.53;;;20.03;;
21677;SDS011;11000;50.360;7.582;2022-09-03T08:05:31;1.10;;;1.00;;
21677;SDS011;11000;50.360;7.582;2022-09-03T08:07:52;1.90;;;0.90;;
21677;SDS011;11000;50.360;7.582;2022-09-03T08:10:13;1.07;;;0.97;;
21677;SDS011;11000;50.360;7.582;2022-09-03T08:12:34;3.43;;;1.17;;
21677;SDS011;11000;50.360;7.582;2022-09-03T08:14:54;2.07;;;1.40;;
21677;SDS011;11000;50.360;7.582;2022-09-03T08:17:16;2.33;;;1.20;;
21677;SDS011;11000;50.360;7.582;2022-09-03T08:19:37;2.40;;;1.17;;
21677;SDS011;11000;50.360;7.582;2022-09-03T08:21:59;1.63;;;1.50;;
21677;SDS011;11000;50.360;7.582;2022-09-03T08:24:20;1.30;;;1.20;;
21677;SDS011;11000;50.360;7.582;2022-09-03T08:26:43;4.07;;;1.00;;
21677;SDS011;11000;50.360;7.582;2022-09-03T08:29:04;2.73;;;1.20;;
21677;SDS011;11000;50.360;7.582;2022-09-03T08:31:25;1.50;;;1.10;;
21677;SDS011;11000;50.360;7.582;2022-09-03T08:33:48;1.73;;;0.93;;
21677;SDS011;11000;50.360;7.582;2022-09-03T08:36:33;1.97;;;1.30;;
21677;SDS011;11000;50.360;7.582;2022-09-03T08:38:57;1.70;;;1.10;;
21677;SDS011;11000;50.360;7.582;2022-09-03T08:44:48;4.63;;;1.50;;
21677;SDS011;11000;50.360;7.582;2022-09-03T08:47:22;1.43;;;1.33;;
21677;SDS011;11000;50.360;7.582;2022-09-03T08:53:21;4.60;;;1.40;;
21677;SDS011;11000;50.360;7.582;2022-09-03T08:55:30;2.37;;;1.50;;
21677;SDS011;11000;50.360;7.582;2022-09-03T08:58:12;1.87;;;1.30;;
21677;SDS011;11000;50.360;7.582;2022-09-03T09:01:21;2.00;;;1.23;;
21677;SDS011;11000;50.360;7.582;2022-09-03T09:06:13;2.20;;;1.47;;
21677;SDS011;11000;50.360;7.582;2022-09-03T09:13:58;2.40;;;1.47;;
21677;SDS011;11000;50.360;7.582;2022-09-03T09:22:09;2.13;;;1.23;;
21677;SDS011;11000;50.360;7.582;2022-09-03T09:24:37;2.17;;;1.60;;
21677;SDS011;11000;50.360;7.582;2022-09-03T09:27:06;3.07;;;1.50;;
21677;SDS011;11000;50.360;7.582;2022-09-03T09:29:28;2.20;;;1.77;;
21677;SDS011;11000;50.360;7.582;2022-09-03T09:31:51;1.70;;;1.37;;
21677;SDS011;11000;50.360;7.582;2022-09-03T09:34:14;1.53;;;1.43;;
21677;SDS011;11000;50.360;7.582;2022-09-03T09:36:55;2.03;;;1.70;;
21677;SDS011;11000;50.360;7.582;2022-09-03T09:39:15;1.77;;;1.57;;
21677;SDS011;11000;50.360;7.582;2022-09-03T09:41:36;2.83;;;1.43;;
21677;SDS011;11000;50.360;7.582;2022-09-03T09:44:00;2.07;;;1.77;;
21677;SDS011;11000;50.360;7.582;2022-09-03T09:46:24;2.30;;;1.60;;
21677;SDS011;11000;50.360;7.582;2022-09-03T09:48:49;1.43;;;1.33;;
21677;SDS011;11000;50.360;7.582;2022-09-03T09:51:13;1.83;;;1.43;;
21677;SDS011;11000;50.360;7.582;2022-09-03T09:53:44;2.30;;;1.57;;
21677;SDS011;11000;50.360;7.582;2022-09-03T09:56:05;5.90;;;1.63;;
21677;SDS011;11000;50.360;7.582;2022-09-03T09:58:27;2.03;;;1.60;;
21677;SDS011;11000;50.360;7.582;2022-09-03T10:03:32;3.67;;;1.70;;
21677;SDS011;11000;50.360;7.582;2022-09-03T10:05:57;1.67;;;1.57;;
21677;SDS011;11000;50.360;7.582;2022-09-03T10:08:41;2.53;;;1.60;;
21677;SDS011;11000;50.360;7.582;2022-09-03T10:11:02;2.13;;;1.90;;
21677;SDS011;11000;50.360;7.582;2022-09-03T10:13:25;2.67;;;1.50;;
21677;SDS011;11000;50.360;7.582;2022-09-03T10:21:07;4.90;;;1.90;;
21677;SDS011;11000;50.360;7.582;2022-09-03T10:23:43;4.20;;;2.03;;
21677;SDS011;11000;50.360;7.582;2022-09-03T10:26:26;2.13;;;1.57;;
21677;SDS011;11000;50.360;7.582;2022-09-03T10:28:50;1.47;;;1.30;;
21677;SDS011;11000;50.360;7.582;2022-09-03T10:33:43;1.87;;;1.67;;
21677;SDS011;11000;50.360;7.582;2022-09-03T10:38:51;1.77;;;1.60;;
21677;SDS011;11000;50.360;7.582;2022-09-03T10:52:09;3.57;;;1.57;;
21677;SDS011;11000;50.360;7.582;2022-09-03T10:54:36;2.43;;;1.70;;
21677;SDS011;11000;50.360;7.582;2022-09-03T11:00:09;2.57;;;1.37;;
21677;SDS011;11000;50.360;7.582;2022-09-03T11:02:37;1.70;;;1.50;;
21677;SDS011;11000;50.360;7.582;2022-09-03T11:05:22;1.77;;;1.63;;
21677;SDS011;11000;50.360;7.582;2022-09-03T11:10:48;1.50;;;1.40;;
21677;SDS011;11000;50.360;7.582;2022-09-03T11:15:58;1.60;;;1.20;;
21677;SDS011;11000;50.360;7.582;2022-09-03T11:18:28;1.50;;;1.30;;
21677;SDS011;11000;50.360;7.582;2022-09-03T11:20:55;1.90;;;1.40;;
21677;SDS011;11000;50.360;7.582;2022-09-03T11:23:20;1.53;;;1.43;;
21677;SDS011;11000;50.360;7.582;2022-09-03T11:26:05;1.50;;;1.17;;
21677;SDS011;11000;50.360;7.582;2022-09-03T11:28:34;1.40;;;1.30;;
21677;SDS011;11000;50.360;7.582;2022-09-03T11:33:56;2.60;;;1.43;;
21677;SDS011;11000;50.360;7.582;2022-09-03T11:36:28;1.83;;;1.43;;
21677;SDS011;11000;50.360;7.582;2022-09-03T11:38:51;1.93;;;1.50;;
21677;SDS011;11000;50.360;7.582;2022-09-03T11:41:22;4.57;;;1.60;;
21677;SDS011;11000;50.360;7.582;2022-09-03T11:43:46;1.57;;;1.47;;
21677;SDS011;11000;50.360;7.582;2022-09-03T11:48:44;2.37;;;1.43;;
21677;SDS011;11000;50.360;7.582;2022-09-03T11:54:04;2.17;;;1.73;;
21677;SDS011;11000;50.360;7.582;2022-09-03T11:56:27;2.30;;;1.27;;
21677;SDS011;11000;50.360;7.582;2022-09-03T12:01:33;1.43;;;1.23;;
21677;SDS011;11000;50.360;7.582;2022-09-03T12:03:57;2.07;;;1.10;;
21677;SDS011;11000;50.360;7.582;2022-09-03T12:06:21;1.50;;;1.40;;
21677;SDS011;11000;50.360;7.582;2022-09-03T12:14:08;2.57;;;1.60;;
21677;SDS011;11000;50.360;7.582;2022-09-03T12:16:40;3.80;;;1.30;;
21677;SDS011;11000;50.360;7.582;2022-09-03T12:19:53;2.40;;;1.50;;
21677;SDS011;11000;50.360;7.582;2022-09-03T12:21:56;2.27;;;1.03;;
21677;SDS011;11000;50.360;7.582;2022-09-03T12:24:17;1.50;;;1.40;;
21677;SDS011;11000;50.360;7.582;2022-09-03T12:26:39;1.73;;;1.23;;
21677;SDS011;11000;50.360;7.582;2022-09-03T12:29:01;1.27;;;1.17;;
21677;SDS011;11000;50.360;7.582;2022-09-03T12:31:25;2.33;;;1.40;;
21677;SDS011;11000;50.360;7.582;2022-09-03T12:33:52;1.30;;;1.20;;
21677;SDS011;11000;50.360;7.582;2022-09-03T12:36:14;2.67;;;1.50;;
21677;SDS011;11000;50.360;7.582;2022-09-03T12:38:35;1.87;;;1.40;;
21677;SDS011;11000;50.360;7.582;2022-09-03T12:40:55;1.50;;;1.23;;
21677;SDS011;11000;50.360;7.582;2022-09-03T12:43:16;2.20;;;1.37;;
21677;SDS011;11000;50.360;7.582;2022-09-03T12:45:44;1.40;;;1.30;;
21677;SDS011;11000;50.360;7.582;2022-09-03T12:48:11;1.57;;;1.30;;
21677;SDS011;11000;50.360;7.582;2022-09-03T12:50:34;1.40;;;1.30;;
21677;SDS011;11000;50.360;7.582;2022-09-03T12:53:01;2.07;;;1.37;;
21677;SDS011;11000;50.360;7.582;2022-09-03T12:55:28;1.60;;;1.20;;
21677;SDS011;11000;50.360;7.582;2022-09-03T13:00:25;1.90;;;1.37;;
21677;SDS011;11000;50.360;7.582;2022-09-03T13:05:33;2.03;;;1.67;;
21677;SDS011;11000;50.360;7.582;2022-09-03T13:07:56;2.47;;;1.50;;
21677;SDS011;11000;50.360;7.582;2022-09-03T13:10:26;1.43;;;1.33;;
21677;SDS011;11000;50.360;7.582;2022-09-03T13:12:49;1.43;;;1.33;;
21677;SDS011;11000;50.360;7.582;2022-09-03T13:15:15;1.67;;;1.53;;
21677;SDS011;11000;50.360;7.582;2022-09-03T13:31:25;1.67;;;1.57;;
21677;SDS011;11000;50.360;7.582;2022-09-03T13:33:53;1.63;;;1.53;;
21677;SDS011;11000;50.360;7.582;2022-09-03T13:38:50;2.80;;;1.20;;
21677;SDS011;11000;50.360;7.582;2022-09-03T13:41:16;1.60;;;1.50;;
21677;SDS011;11000;50.360;7.582;2022-09-03T13:43:57;2.80;;;1.43;;
21677;SDS011;11000;50.360;7.582;2022-09-03T13:46:26;2.27;;;1.70;;
21677;SDS011;11000;50.360;7.582;2022-09-03T13:48:51;2.80;;;1.73;;
21677;SDS011;11000;50.360;7.582;2022-09-03T13:51:53;1.50;;;1.40;;
21677;SDS011;11000;50.360;7.582;2022-09-03T13:54:19;1.60;;;1.50;;
21677;SDS011;11000;50.360;7.582;2022-09-03T14:00:00;2.43;;;2.23;;
21677;SDS011;11000;50.360;7.582;2022-09-03T14:05:13;2.33;;;1.77;;
21677;SDS011;11000;50.360;7.582;2022-09-03T14:10:19;2.87;;;1.50;;
21677;SDS011;11000;50.360;7.582;2022-09-03T14:20:53;3.90;;;1.80;;
21677;SDS011;11000;50.360;7.582;2022-09-03T14:26:02;1.50;;;1.40;;
21677;SDS011;11000;50.360;7.582;2022-09-03T14:28:35;2.10;;;1.50;;
21677;SDS011;11000;50.360;7.582;2022-09-03T14:31:07;1.73;;;1.47;;
21677;SDS011;11000;50.360;7.582;2022-09-03T14:33:59;1.50;;;1.40;;
21677;SDS011;11000;50.360;7.582;2022-09-03T14:36:29;1.67;;;1.50;;
21677;SDS011;11000;50.360;7.582;2022-09-03T14:39:10;2.03;;;1.50;;
21677;SDS011;11000;50.360;7.582;2022-09-03T14:41:56;1.60;;;1.50;;
21677;SDS011;11000;50.360;7.582;2022-09-03T14:44:42;1.57;;;1.47;;
21677;SDS011;11000;50.360;7.582;2022-09-03T15:01:38;3.87;;;1.70;;
21677;SDS011;11000;50.360;7.582;2022-09-03T15:14:34;1.93;;;1.80;;
21677;SDS011;11000;50.360;7.582;2022-09-03T15:20:00;4.23;;;1.70;;
21677;SDS011;11000;50.360;7.582;2022-09-03T15:28:18;7.13;;;3.50;;
21677;SDS011;11000;50.360;7.582;2022-09-03T15:30:59;6.30;;;3.20;;
21677;SDS011;11000;50.360;7.582;2022-09-03T15:33:41;7.20;;;3.30;;
21677;SDS011;11000;50.360;7.582;2022-09-03T15:36:19;15.20;;;4.87;;
21677;SDS011;11000;50.360;7.582;2022-09-03T15:38:46;7.63;;;3.83;;
21677;SDS011;11000;50.360;7.582;2022-09-03T15:44:05;5.90;;;4.40;;
21677;SDS011;11000;50.360;7.582;2022-09-03T16:00:29;7.03;;;5.53;;
21677;SDS011;11000;50.360;7.582;2022-09-03T16:03:08;6.30;;;4.20;;
21677;SDS011;11000;50.360;7.582;2022-09-03T16:08:09;2.70;;;2.47;;
21677;SDS011;11000;50.360;7.582;2022-09-03T16:10:47;6.70;;;4.50;;
21677;SDS011;11000;50.360;7.582;2022-09-03T16:16:10;5.70;;;3.50;;
21677;SDS011;11000;50.360;7.582;2022-09-03T16:18:45;8.87;;;4.80;;
21677;SDS011;11000;50.360;7.582;2022-09-03T16:21:57;5.93;;;4.50;;
21677;SDS011;11000;50.360;7.582;2022-09-03T16:26:48;4.73;;;3.87;;
21677;SDS011;11000;50.360;7.582;2022-09-03T16:29:14;3.57;;;3.27;;
21677;SDS011;11000;50.360;7.582;2022-09-03T16:31:48;4.00;;;3.13;;
21677;SDS011;11000;50.360;7.582;2022-09-03T16:34:34;3.87;;;2.70;;
21677;SDS011;11000;50.360;7.582;2022-09-03T16:44:45;9.60;;;5.60;;
21677;SDS011;11000;50.360;7.582;2022-09-03T16:53:11;9.50;;;5.27;;
21677;SDS011;11000;50.360;7.582;2022-09-03T16:55:59;6.73;;;5.73;;
21677;SDS011;11000;50.360;7.582;2022-09-03T16:58:34;7.37;;;5.17;;
21677;SDS011;11000;50.360;7.582;2022-09-03T17:01:11;8.37;;;5.53;;
21677;SDS011;11000;50.360;7.582;2022-09-03T17:06:55;7.53;;;5.20;;
21677;SDS011;11000;50.360;7.582;2022-09-03T17:09:37;6.33;;;5.70;;
21677;SDS011;11000;50.360;7.582;2022-09-03T17:19:52;9.37;;;5.30;;
21677;SDS011;11000;50.360;7.582;2022-09-03T17:24:57;7.87;;;5.63;;
21677;SDS011;11000;50.360;7.582;2022-09-03T17:30:09;8.10;;;5.77;;
21677;SDS011;11000;50.360;7.582;2022-09-03T17:35:06;7.17;;;4.97;;
21677;SDS011;11000;50.360;7.582;2022-09-03T17:42:53;12.43;;;6.13;;
21677;SDS011;11000;50.360;7.582;2022-09-03T17:45:35;10.47;;;5.80;;
21677;SDS011;11000;50.360;7.582;2022-09-03T17:51:14;6.93;;;5.87;;
21677;SDS011;11000;50.360;7.582;2022-09-03T17:53:51;7.37;;;5.57;;
21677;SDS011;11000;50.360;7.582;2022-09-03T17:56:28;6.13;;;5.53;;
21677;SDS011;11000;50.360;7.582;2022-09-03T17:58:54;7.80;;;5.97;;
21677;SDS011;11000;50.360;7.582;2022-09-03T18:01:47;5.60;;;4.77;;
21677;SDS011;11000;50.360;7.582;2022-09-03T18:04:17;8.33;;;5.83;;
21677;SDS011;11000;50.360;7.582;2022-09-03T18:06:54;6.77;;;6.03;;
21677;SDS011;11000;50.360;7.582;2022-09-03T18:09:23;7.60;;;5.10;;
21677;SDS011;11000;50.360;7.582;2022-09-03T18:12:03;6.30;;;5.10;;
21677;SDS011;11000;50.360;7.582;2022-09-03T18:19:38;6.13;;;5.53;;
21677;SDS011;11000;50.360;7.582;2022-09-03T18:22:24;7.70;;;6.00;;
21677;SDS011;11000;50.360;7.582;2022-09-03T18:25:13;6.53;;;5.43;;
21677;SDS011;11000;50.360;7.582;2022-09-03T18:27:56;7.90;;;6.20;;
21677;SDS011;11000;50.360;7.582;2022-09-03T18:30:41;7.17;;;6.47;;
21677;SDS011;11000;50.360;7.582;2022-09-03T18:33:22;8.23;;;6.33;;
21677;SDS011;11000;50.360;7.582;2022-09-03T18:36:02;7.80;;;5.63;;
21677;SDS011;11000;50.360;7.582;2022-09-03T18:38:43;6.57;;;5.80;;
21677;SDS011;11000;50.360;7.582;2022-09-03T18:47:37;7.87;;;5.13;;
21677;SDS011;11000;50.360;7.582;2022-09-03T18:50:23;5.77;;;5.23;;
21677;SDS011;11000;50.360;7.582;2022-09-03T18:53:10;5.77;;;4.50;;
21677;SDS011;11000;50.360;7.582;2022-09-03T18:56:11;5.47;;;4.97;;
21677;SDS011;11000;50.360;7.582;2022-09-03T19:01:53;7.03;;;4.57;;
21677;SDS011;11000;50.360;7.582;2022-09-03T19:07:49;6.33;;;4.80;;
21677;SDS011;11000;50.360;7.582;2022-09-03T19:10:42;5.40;;;4.90;;
21677;SDS011;11000;50.360;7.582;2022-09-03T19:13:32;5.90;;;4.90;;
21677;SDS011;11000;50.360;7.582;2022-09-03T19:19:35;10.70;;;4.83;;
21677;SDS011;11000;50.360;7.582;2022-09-03T19:22:39;5.33;;;4.80;;
21677;SDS011;11000;50.360;7.582;2022-09-03T19:25:20;6.30;;;5.40;;